Bugtussle, Kentucky
Current Conditions -  °F | °C
As of 5:15 PM on Sunday 21 Dec 2014 (Local Time) from KGLW Reporting Station
Haze Haze  
Wind Chill: 39°   Ceiling: Unl
Heat Index: 42°   Visibility: 5mi
Dew Point: 29°   Wind: 5mph
Humidity: 61%   Direction: 30°NNE
Pressure: 30.09"   Gusts: NA
Location:  36.6549°N, 85.8315°W
Report Text: KGLW 212315Z AUTO 03004KT 5SM HZ CLR 06/M02 A3009 RMK AO2 T00551016
Loading
Personal Weather Stations






























Interactive Weather Map New forecast layout! Learn more

10-Day Weather Forecast

Advertisements
Track Severe Weather on mobile